Time;durP1;ratioP1;P1;durP2;ratioP2;P2;SDS_P1;SDS_P2;PMS_P1;PMS_P2;Temp;Humidity;BMP_temperature;BMP_pressure;BME280_temperature;BME280_humidity;BME280_pressure;Samples;Min_cycle;Max_cycle;Signal;HPM_P1;HPM_P2
2023/06/06 00:00:15;;;;;;;;;;;;;;;21.46;39.55;101462.56;4114143;28;19949;-66
2023/06/06 00:02:19;;;;;;;;;;;;;;;21.43;39.37;101458.31;4113686;28;19926;-66
2023/06/06 00:04:21;;;;;;;;;;;;;;;21.42;39.23;101453.06;4114794;28;19927;-66
2023/06/06 00:06:24;;;;;;;;;;;;;;;21.41;39.40;101462.06;4114763;28;20399;-65
2023/06/06 00:08:28;;;;;;;;;;;;;;;21.39;39.46;101467.50;4114862;28;19952;-65
2023/06/06 00:10:30;;;;;;;;;;;;;;;21.38;39.54;101455.94;4113847;28;19926;-65
2023/06/06 00:12:32;;;;;;;;;;;;;;;21.37;39.54;101456.94;4114868;28;19972;-65
2023/06/06 00:14:33;;;;;;;;;;;;;;;21.37;39.18;101467.63;4114855;28;20405;-64
2023/06/06 00:16:35;;;;;;;;;;;;;;;21.36;39.41;101468.59;4114382;28;19926;-64
2023/06/06 00:18:38;;;;;;;;;;;;;;;21.36;39.42;101451.66;4114770;28;19930;-64
2023/06/06 00:20:40;;;;;;;;;;;;;;;21.35;39.32;101457.97;4113827;28;19981;-64
2023/06/06 00:22:42;;;;;;;;;;;;;;;21.34;39.18;101445.59;4114574;28;19926;-64
2023/06/06 00:24:45;;;;;;;;;;;;;;;21.34;39.31;101440.22;4114541;28;19933;-64
2023/06/06 00:26:47;;;;;;;;;;;;;;;21.33;39.31;101446.53;4114491;28;19926;-64
2023/06/06 00:28:49;;;;;;;;;;;;;;;21.33;39.56;101449.22;4114426;28;19927;-64
2023/06/06 00:30:50;;;;;;;;;;;;;;;21.31;39.45;101454.69;4113268;28;19937;-64
2023/06/06 00:32:52;;;;;;;;;;;;;;;21.31;39.28;101452.00;4114478;28;19992;-64
2023/06/06 00:34:54;;;;;;;;;;;;;;;21.30;39.48;101450.28;4127417;28;19926;-65
2023/06/06 00:36:56;;;;;;;;;;;;;;;21.30;39.23;101444.06;4130054;28;19926;-64
2023/06/06 00:38:57;;;;;;;;;;;;;;;21.28;39.40;101452.19;4120117;28;19926;-65
2023/06/06 00:40:59;;;;;;;;;;;;;;;21.28;39.52;101454.03;4144422;28;20430;-64
2023/06/06 00:43:00;;;;;;;;;;;;;;;21.27;39.40;101450.50;4114467;28;19940;-65
2023/06/06 00:45:02;;;;;;;;;;;;;;;21.28;39.46;101452.19;4114259;28;20021;-64
2023/06/06 00:47:04;;;;;;;;;;;;;;;21.27;39.35;101450.50;4114071;28;19933;-64
2023/06/06 00:49:10;;;;;;;;;;;;;;;21.27;39.27;101444.28;4114429;28;19926;-64
2023/06/06 00:51:11;;;;;;;;;;;;;;;21.27;39.43;101446.97;4113548;28;20033;-64
2023/06/06 00:53:13;;;;;;;;;;;;;;;21.26;39.49;101447.94;4114220;28;20276;-64
2023/06/06 00:55:16;;;;;;;;;;;;;;;21.25;39.31;101446.22;4114479;28;19961;-64
2023/06/06 00:57:18;;;;;;;;;;;;;;;21.25;39.49;101444.38;4114317;28;19926;-64
2023/06/06 00:59:23;;;;;;;;;;;;;;;21.23;39.43;101439.16;4113851;28;19926;-65
2023/06/06 01:01:28;;;;;;;;;;;;;;;21.24;39.53;101437.34;4144271;28;20005;-65
2023/06/06 01:03:31;;;;;;;;;;;;;;;21.23;39.49;101440.97;4114160;28;19961;-64
2023/06/06 01:05:32;;;;;;;;;;;;;;;21.23;39.24;101440.97;4114228;28;19953;-64
2023/06/06 01:07:35;;;;;;;;;;;;;;;21.22;39.64;101444.59;4114194;28;20487;-64
2023/06/06 01:09:37;;;;;;;;;;;;;;;21.20;39.33;101439.38;4113736;28;19927;-64
2023/06/06 01:12:02;;;;;;;;;;;;;;;21.20;39.55;101441.19;4114044;28;19957;-64
2023/06/06 01:14:09;;;;;;;;;;;;;;;21.19;39.33;101442.13;4113685;28;20281;-64
2023/06/06 01:16:17;;;;;;;;;;;;;;;21.17;39.50;101439.56;4114131;28;19938;-64
2023/06/06 01:18:21;;;;;;;;;;;;;;;21.16;39.51;101437.84;4113990;28;19930;-65
2023/06/06 01:20:23;;;;;;;;;;;;;;;21.18;39.34;101440.41;4113108;28;19926;-63
2023/06/06 01:22:27;;;;;;;;;;;;;;;21.16;39.53;101437.00;4144980;28;20357;-64
2023/06/06 01:24:29;;;;;;;;;;;;;;;21.13;39.59;101427.38;4113937;28;19934;-64
2023/06/06 01:26:30;;;;;;;;;;;;;;;21.12;39.73;101425.66;4113735;28;20299;-64
2023/06/06 01:28:32;;;;;;;;;;;;;;;21.10;39.73;101429.41;4113331;28;20009;-64
2023/06/06 01:30:34;;;;;;;;;;;;;;;21.09;39.59;101430.38;4112859;28;19927;-63
2023/06/06 01:32:59;;;;;;;;;;;;;;;21.06;39.75;101426.94;4113758;28;19957;-64
2023/06/06 01:35:36;;;;;;;;;;;;;;;21.06;39.81;101426.09;4127399;28;19930;-64
2023/06/06 01:37:48;;;;;;;;;;;;;;;21.05;39.64;101419.88;4095775;29;19935;-63
2023/06/06 01:39:55;;;;;;;;;;;;;;;21.05;39.66;101425.22;4063470;29;19927;-63
2023/06/06 01:41:58;;;;;;;;;;;;;;;21.05;39.79;101429.72;4064014;28;19927;-64
2023/06/06 01:43:59;;;;;;;;;;;;;;;21.03;39.67;101408.44;4064079;29;19962;-63
2023/06/06 01:46:01;;;;;;;;;;;;;;;21.02;39.59;101419.22;4064182;29;20339;-64
2023/06/06 01:48:04;;;;;;;;;;;;;;;20.92;39.71;101407.47;4064078;29;19933;-63
2023/06/06 01:50:07;;;;;;;;;;;;;;;21.01;39.86;101418.38;4077959;29;20304;-63
2023/06/06 01:52:09;;;;;;;;;;;;;;;21.01;39.73;101425.53;4064524;29;19928;-64
2023/06/06 01:54:10;;;;;;;;;;;;;;;21.01;39.87;101425.53;4064068;29;20435;-63
2023/06/06 01:56:13;;;;;;;;;;;;;;;21.00;39.61;101421.16;4064121;29;19927;-64
2023/06/06 01:58:16;;;;;;;;;;;;;;;21.00;39.77;101423.84;4063741;28;19927;-62
2023/06/06 02:00:19;;;;;;;;;;;;;;;21.00;39.58;101421.16;4063210;29;19939;-64
2023/06/06 02:02:20;;;;;;;;;;;;;;;20.99;39.81;101422.97;4063964;29;20395;-64
2023/06/06 02:04:22;;;;;;;;;;;;;;;20.97;40.01;101422.22;4064003;29;19927;-64
2023/06/06 02:06:24;;;;;;;;;;;;;;;20.97;39.51;101424.88;4064172;28;20486;-64
2023/06/06 02:08:25;;;;;;;;;;;;;;;20.96;39.67;101423.19;4064051;28;19969;-65
2023/06/06 02:10:27;;;;;;;;;;;;;;;20.81;39.70;101398.34;4063068;29;19933;-64
2023/06/06 02:12:28;;;;;;;;;;;;;;;20.93;39.85;101419.88;4089577;29;19926;-64
2023/06/06 02:14:30;;;;;;;;;;;;;;;20.93;39.89;101419.88;4097372;29;20013;-64
2023/06/06 02:16:31;;;;;;;;;;;;;;;20.92;39.87;101419.00;4097305;29;19930;-63
2023/06/06 02:18:33;;;;;;;;;;;;;;;20.92;39.89;101420.84;4097489;28;19926;-64
2023/06/06 02:20:34;;;;;;;;;;;;;;;20.90;39.88;101424.47;4096339;28;19976;-64
2023/06/06 02:22:37;;;;;;;;;;;;;;;20.90;39.50;101421.78;4097409;29;19926;-64
2023/06/06 02:24:40;;;;;;;;;;;;;;;20.89;39.69;101412.03;4097414;28;19962;-65
2023/06/06 02:26:42;;;;;;;;;;;;;;;20.87;39.84;101421.97;4103487;28;20024;-64
2023/06/06 02:28:43;;;;;;;;;;;;;;;20.86;39.78;101422.97;4113048;28;19934;-64
2023/06/06 02:30:45;;;;;;;;;;;;;;;20.86;40.11;101422.97;4112479;28;19972;-65
2023/06/06 02:32:47;;;;;;;;;;;;;;;20.86;40.01;101417.63;4112856;28;19964;-64
2023/06/06 02:34:48;;;;;;;;;;;;;;;20.85;39.92;101415.91;4124943;28;20355;-65
2023/06/06 02:36:51;;;;;;;;;;;;;;;20.85;39.97;101421.25;4129192;28;19926;-64
2023/06/06 02:38:52;;;;;;;;;;;;;;;20.85;39.68;101431.94;4118167;28;19927;-64
2023/06/06 02:40:54;;;;;;;;;;;;;;;20.84;40.08;101424.00;4111601;28;19932;-64
2023/06/06 02:42:55;;;;;;;;;;;;;;;20.83;39.95;101425.84;4113166;28;19972;-63
2023/06/06 02:44:57;;;;;;;;;;;;;;;20.82;39.85;101424.13;4112994;28;19988;-64
2023/06/06 02:46:58;;;;;;;;;;;;;;;20.83;39.86;101419.66;4113069;28;19926;-64
2023/06/06 02:49:00;;;;;;;;;;;;;;;20.82;39.71;101420.59;4112726;28;20302;-64
2023/06/06 02:51:03;;;;;;;;;;;;;;;20.81;39.59;101417.06;4112070;28;20418;-64
2023/06/06 02:53:06;;;;;;;;;;;;;;;20.81;39.78;101416.22;4112897;28;19934;-64
2023/06/06 02:55:07;;;;;;;;;;;;;;;20.80;39.65;101419.84;4112593;28;19972;-65
2023/06/06 02:57:09;;;;;;;;;;;;;;;20.80;39.93;101417.16;4113016;28;19926;-64
2023/06/06 02:59:10;;;;;;;;;;;;;;;20.78;39.79;101409.25;4113033;28;20459;-64
2023/06/06 03:01:12;;;;;;;;;;;;;;;20.77;39.94;101410.22;4113445;28;20021;-64
2023/06/06 03:03:14;;;;;;;;;;;;;;;20.77;39.84;101406.66;4115696;28;19989;-64
2023/06/06 03:05:17;;;;;;;;;;;;;;;20.76;39.79;101400.47;4115780;28;20017;-64
2023/06/06 03:07:20;;;;;;;;;;;;;;;20.75;39.97;101398.75;4115601;28;20055;-64
2023/06/06 03:09:24;;;;;;;;;;;;;;;20.75;39.87;101401.44;4115399;28;19926;-64
2023/06/06 03:11:25;;;;;;;;;;;;;;;20.74;39.91;101405.94;4114579;28;19980;-64
2023/06/06 03:13:27;;;;;;;;;;;;;;;20.73;39.96;101411.41;4115593;28;19927;-63
2023/06/06 03:15:29;;;;;;;;;;;;;;;20.72;40.13;101410.53;4115432;28;19926;-64
2023/06/06 03:17:30;;;;;;;;;;;;;;;20.72;39.87;101407.00;4115542;28;19926;-64
2023/06/06 03:19:32;;;;;;;;;;;;;;;20.72;40.10;101407.84;4115547;28;19930;-64
2023/06/06 03:21:33;;;;;;;;;;;;;;;20.71;39.86;101414.13;4114442;28;19926;-65
2023/06/06 03:23:35;;;;;;;;;;;;;;;20.70;40.01;101409.72;4114348;28;19960;-64
2023/06/06 03:25:39;;;;;;;;;;;;;;;20.71;40.05;101408.78;4115188;28;19930;-64
2023/06/06 03:27:41;;;;;;;;;;;;;;;20.69;39.82;101405.38;4115368;28;20306;-64
2023/06/06 03:29:43;;;;;;;;;;;;;;;20.68;39.88;101409.00;4115353;28;20086;-64
2023/06/06 03:31:44;;;;;;;;;;;;;;;20.67;40.21;101407.28;4114331;28;19930;-64
2023/06/06 03:33:46;;;;;;;;;;;;;;;20.67;40.03;101409.94;4118934;28;20044;-64
2023/06/06 03:35:47;;;;;;;;;;;;;;;20.68;39.86;101405.44;4131179;28;19926;-64
2023/06/06 03:37:49;;;;;;;;;;;;;;;20.67;39.80;101404.59;4129936;28;19932;-64
2023/06/06 03:39:50;;;;;;;;;;;;;;;20.67;40.06;101417.97;4114941;28;19933;-64
2023/06/06 03:41:52;;;;;;;;;;;;;;;20.65;39.83;101411.88;4114114;28;20009;-64
2023/06/06 03:43:54;;;;;;;;;;;;;;;20.66;40.02;101407.38;4115419;28;20008;-63
2023/06/06 03:45:55;;;;;;;;;;;;;;;20.66;39.75;101412.75;4115016;28;19969;-63
2023/06/06 03:47:57;;;;;;;;;;;;;;;20.64;40.09;101411.97;4114841;28;19926;-65
2023/06/06 03:49:59;;;;;;;;;;;;;;;20.64;39.76;101415.47;4115424;28;20387;-64
2023/06/06 03:52:00;;;;;;;;;;;;;;;20.63;40.08;101421.78;4114154;28;20029;-64
2023/06/06 03:54:02;;;;;;;;;;;;;;;20.62;39.84;101420.09;4114859;28;20284;-63
2023/06/06 03:56:04;;;;;;;;;;;;;;;20.62;39.89;101420.09;4115019;28;19926;-64
2023/06/06 03:58:07;;;;;;;;;;;;;;;20.62;39.72;101424.56;4115326;28;19927;-64
2023/06/06 04:00:13;;;;;;;;;;;;;;;20.57;40.04;101409.72;4114598;28;19926;-66
2023/06/06 04:02:16;;;;;;;;;;;;;;;20.61;39.97;101422.84;4114856;28;19926;-63
2023/06/06 04:04:18;;;;;;;;;;;;;;;20.59;39.91;101421.13;4114768;28;19932;-63
2023/06/06 04:06:20;;;;;;;;;;;;;;;20.59;40.13;101421.13;4114865;28;19930;-63
2023/06/06 04:08:26;;;;;;;;;;;;;;;20.58;39.89;101419.44;4114575;28;19937;-64
2023/06/06 04:10:33;;;;;;;;;;;;;;;20.58;39.81;101419.44;4113975;28;19932;-64
2023/06/06 04:12:34;;;;;;;;;;;;;;;20.57;39.92;101425.75;4113352;28;20410;-64
2023/06/06 04:14:36;;;;;;;;;;;;;;;20.56;39.93;101421.34;4114916;28;20398;-64
2023/06/06 04:16:40;;;;;;;;;;;;;;;20.57;40.06;101427.53;4114802;28;19926;-64
2023/06/06 04:18:41;;;;;;;;;;;;;;;20.56;40.13;101425.81;4114756;28;20012;-64
2023/06/06 04:20:44;;;;;;;;;;;;;;;20.56;40.02;101426.69;4113880;28;20307;-64
2023/06/06 04:22:45;;;;;;;;;;;;;;;20.55;39.81;101426.81;4114374;28;19965;-64
2023/06/06 04:24:47;;;;;;;;;;;;;;;20.54;39.87;101427.78;4114665;28;19926;-64
2023/06/06 04:26:49;;;;;;;;;;;;;;;20.53;39.76;101423.38;4114742;28;19926;-64
2023/06/06 04:28:53;;;;;;;;;;;;;;;20.53;40.13;101421.56;4114307;28;20004;-64
2023/06/06 04:30:54;;;;;;;;;;;;;;;20.54;39.90;101430.44;4113503;28;20364;-65
2023/06/06 04:32:56;;;;;;;;;;;;;;;20.53;39.90;101426.88;4114411;28;20351;-63
2023/06/06 04:34:58;;;;;;;;;;;;;;;20.53;39.76;101418.88;4127906;28;19926;-63
2023/06/06 04:37:03;;;;;;;;;;;;;;;20.53;40.22;101420.72;4130455;28;20181;-63
2023/06/06 04:39:07;;;;;;;;;;;;;;;20.52;40.03;101419.88;4119161;28;20745;-63
2023/06/06 04:41:08;;;;;;;;;;;;;;;20.53;40.07;101418.88;4113507;28;19988;-63
2023/06/06 04:43:30;;;;;;;;;;;;;;;20.52;39.85;101422.53;4114533;28;19926;-64
2023/06/06 04:45:32;;;;;;;;;;;;;;;20.52;39.88;101427.00;4114397;28;19930;-63
2023/06/06 04:47:35;;;;;;;;;;;;;;;20.52;40.11;101425.22;4114686;28;19927;-63
2023/06/06 04:49:38;;;;;;;;;;;;;;;20.51;39.97;101419.94;4114280;28;19976;-64
2023/06/06 04:51:43;;;;;;;;;;;;;;;20.50;39.98;101429.78;4113026;28;19933;-63
2023/06/06 04:53:44;;;;;;;;;;;;;;;20.51;40.03;101422.63;4114524;28;19930;-63
2023/06/06 04:55:47;;;;;;;;;;;;;;;20.51;39.86;101422.63;4114262;28;19930;-63
2023/06/06 04:57:49;;;;;;;;;;;;;;;20.50;40.08;101420.91;4114353;28;19959;-64
2023/06/06 04:59:50;;;;;;;;;;;;;;;20.50;40.12;101421.78;4114243;28;20024;-63
2023/06/06 05:01:55;;;;;;;;;;;;;;;20.49;39.89;101419.22;4113109;28;19934;-64
2023/06/06 05:03:56;;;;;;;;;;;;;;;20.50;39.76;101418.22;4114412;28;19926;-63
2023/06/06 05:05:58;;;;;;;;;;;;;;;20.49;40.22;101417.38;4114049;28;20030;-63
2023/06/06 05:07:59;;;;;;;;;;;;;;;20.49;40.06;101417.38;4114256;28;20288;-63
2023/06/06 05:10:01;;;;;;;;;;;;;;;20.49;40.11;101427.22;4114251;28;19926;-63
2023/06/06 05:12:07;;;;;;;;;;;;;;;20.48;40.06;101422.84;4113084;28;19927;-63
2023/06/06 05:14:09;;;;;;;;;;;;;;;20.48;40.12;101418.34;4114227;28;20399;-63
2023/06/06 05:16:11;;;;;;;;;;;;;;;20.48;39.65;101428.19;4112839;28;19980;-64
2023/06/06 05:18:12;;;;;;;;;;;;;;;20.47;40.04;101421.97;4113897;28;20022;-63
2023/06/06 05:20:14;;;;;;;;;;;;;;;20.47;40.14;101421.97;4114054;28;19930;-66
2023/06/06 05:22:20;;;;;;;;;;;;;;;20.47;40.11;101427.31;4112889;28;20017;-62
2023/06/06 05:24:22;;;;;;;;;;;;;;;20.46;39.90;101420.25;4113524;28;19926;-64
2023/06/06 05:26:25;;;;;;;;;;;;;;;20.47;39.98;101429.13;4114134;28;20001;-63
2023/06/06 05:28:27;;;;;;;;;;;;;;;20.46;40.05;101422.91;4113838;28;19937;-63
2023/06/06 05:30:29;;;;;;;;;;;;;;;20.47;39.96;101426.47;4113570;28;19933;-64
2023/06/06 05:32:36;;;;;;;;;;;;;;;20.45;39.86;101423.03;4113655;28;19932;-63
2023/06/06 05:34:38;;;;;;;;;;;;;;;20.42;40.08;101422.25;4123966;28;20049;-63
2023/06/06 05:36:45;;;;;;;;;;;;;;;20.41;40.00;101422.38;4129999;28;19961;-64
2023/06/06 05:38:46;;;;;;;;;;;;;;;20.39;39.85;101425.16;4120697;28;19926;-63
2023/06/06 05:40:48;;;;;;;;;;;;;;;20.37;40.41;101427.06;4112795;28;19926;-64
2023/06/06 05:42:49;;;;;;;;;;;;;;;20.38;40.22;101427.94;4113726;28;19926;-63
2023/06/06 05:44:51;;;;;;;;;;;;;;;20.37;40.10;101421.72;4112462;28;20434;-63
2023/06/06 05:46:57;;;;;;;;;;;;;;;20.35;40.18;101426.31;4113629;28;19988;-62
2023/06/06 05:49:04;;;;;;;;;;;;;;;20.36;40.42;101424.50;4113417;28;19979;-63
2023/06/06 05:51:07;;;;;;;;;;;;;;;20.36;40.23;101432.50;4112706;28;19950;-63
2023/06/06 05:53:11;;;;;;;;;;;;;;;20.36;40.28;101430.69;4113646;28;19926;-64
2023/06/06 05:55:26;;;;;;;;;;;;;;;20.37;40.47;101427.06;4113748;28;19958;-63
2023/06/06 05:57:28;;;;;;;;;;;;;;;20.38;40.14;101431.44;4113603;28;20315;-63
2023/06/06 05:59:30;;;;;;;;;;;;;;;20.38;40.45;101428.78;4113514;28;20414;-65
2023/06/06 06:01:31;;;;;;;;;;;;;;;20.40;40.46;101428.66;4112337;28;20387;-63
2023/06/06 06:03:33;;;;;;;;;;;;;;;20.40;40.27;101440.22;4112259;28;19980;-64
2023/06/06 06:05:35;;;;;;;;;;;;;;;20.41;40.12;101438.41;4113438;28;19932;-63
2023/06/06 06:07:37;;;;;;;;;;;;;;;20.40;40.06;101442.03;4113634;28;20388;-63
2023/06/06 06:09:39;;;;;;;;;;;;;;;20.40;40.16;101434.00;4113456;28;19979;-63
2023/06/06 06:11:41;;;;;;;;;;;;;;;20.39;40.25;101438.50;4112570;28;20014;-63
2023/06/06 06:13:42;;;;;;;;;;;;;;;20.39;40.28;101434.97;4113147;28;20009;-63
2023/06/06 06:15:43;;;;;;;;;;;;;;;20.38;40.33;101439.47;4113244;28;20418;-63
2023/06/06 06:17:45;;;;;;;;;;;;;;;20.38;40.42;101438.63;4113446;28;20037;-64
2023/06/06 06:19:47;;;;;;;;;;;;;;;20.38;40.50;101443.97;4111752;28;20412;-63
2023/06/06 06:21:53;;;;;;;;;;;;;;;20.38;40.42;101442.13;4112148;28;20040;-64
2023/06/06 06:23:55;;;;;;;;;;;;;;;20.37;40.22;101439.56;4113193;28;19926;-63
2023/06/06 06:25:57;;;;;;;;;;;;;;;20.37;40.27;101443.09;4113014;28;19972;-63
2023/06/06 06:27:58;;;;;;;;;;;;;;;20.37;40.43;101447.59;4113211;28;19933;-64
2023/06/06 06:30:01;;;;;;;;;;;;;;;20.37;40.37;101435.06;4113017;28;20021;-63
2023/06/06 06:32:03;;;;;;;;;;;;;;;20.38;40.35;101447.47;4112086;28;19930;-63
2023/06/06 06:34:05;;;;;;;;;;;;;;;20.37;40.44;101434.22;4118914;28;19925;-63
2023/06/06 06:36:07;;;;;;;;;;;;;;;20.39;40.52;101440.31;4128434;28;20513;-63
2023/06/06 06:38:08;;;;;;;;;;;;;;;20.39;40.45;101435.84;4125229;28;19933;-63
2023/06/06 06:40:10;;;;;;;;;;;;;;;20.40;40.40;101448.25;4113146;28;19926;-63
2023/06/06 06:42:12;;;;;;;;;;;;;;;20.42;40.37;101440.13;4111985;28;19933;-64
2023/06/06 06:44:13;;;;;;;;;;;;;;;20.42;40.38;101440.97;4112841;28;19930;-64
2023/06/06 06:46:15;;;;;;;;;;;;;;;20.43;40.32;101445.34;4113127;28;19972;-64
2023/06/06 06:48:17;;;;;;;;;;;;;;;20.44;40.45;101446.22;4112798;28;20009;-64
2023/06/06 06:50:18;;;;;;;;;;;;;;;20.43;40.38;101450.69;4112587;28;19926;-64
2023/06/06 06:52:20;;;;;;;;;;;;;;;20.43;41.19;101440.00;4111697;28;20314;-65
2023/06/06 06:54:24;;;;;;;;;;;;;;;20.45;41.73;101447.94;4112834;28;19933;-65
2023/06/06 06:56:27;;;;;;;;;;;;;;;20.46;41.58;101443.44;4112984;28;19970;-66
2023/06/06 06:58:33;;;;;;;;;;;;;;;20.47;41.54;101442.50;4113150;28;19933;-65
2023/06/06 07:00:35;;;;;;;;;;;;;;;20.49;41.50;101445.94;4112912;28;20003;-66
2023/06/06 07:02:39;;;;;;;;;;;;;;;20.50;41.70;101447.63;4111405;28;19934;-65
2023/06/06 07:04:42;;;;;;;;;;;;;;;20.51;41.80;101444.88;4112687;28;19936;-66
2023/06/06 07:06:43;;;;;;;;;;;;;;;20.53;41.69;101447.44;4112794;28;19930;-64
2023/06/06 07:08:45;;;;;;;;;;;;;;;20.54;41.68;101446.47;4112860;28;20439;-65
2023/06/06 07:10:48;;;;;;;;;;;;;;;20.53;41.60;101452.78;4112705;28;19966;-65
2023/06/06 07:12:50;;;;;;;;;;;;;;;20.54;41.57;101444.66;4112210;28;20298;-64
2023/06/06 07:14:52;;;;;;;;;;;;;;;20.56;41.74;101447.22;4112639;28;20388;-64
2023/06/06 07:16:53;;;;;;;;;;;;;;;20.57;41.70;101446.25;4112696;28;19937;-65
2023/06/06 07:18:58;;;;;;;;;;;;;;;20.56;41.58;101440.06;4112654;28;19926;-64
2023/06/06 07:20:59;;;;;;;;;;;;;;;20.59;41.60;101447.84;4112090;28;19940;-65
2023/06/06 07:23:02;;;;;;;;;;;;;;;20.61;41.56;101450.47;4112497;28;20036;-65
2023/06/06 07:25:04;;;;;;;;;;;;;;;20.61;41.90;101445.09;4112749;28;19937;-65
2023/06/06 07:27:09;;;;;;;;;;;;;;;20.62;41.31;101443.28;4112609;28;19926;-65
2023/06/06 07:29:11;;;;;;;;;;;;;;;20.64;41.22;101450.22;4112324;28;19926;-65
2023/06/06 07:31:13;;;;;;;;;;;;;;;20.67;41.28;101443.81;4111308;28;20032;-65
2023/06/06 07:33:15;;;;;;;;;;;;;;;20.42;41.18;101398.22;4112334;28;20384;-67
2023/06/06 07:35:19;;;;;;;;;;;;;;;20.69;41.36;101441.91;4128290;28;19929;-66
2023/06/06 07:37:21;;;;;;;;;;;;;;;20.67;41.51;101444.69;4128589;28;19929;-65
2023/06/06 07:39:22;;;;;;;;;;;;;;;20.67;41.43;101438.47;4114843;28;19926;-65
2023/06/06 07:41:26;;;;;;;;;;;;;;;20.66;41.37;101442.97;4111663;28;19930;-66
2023/06/06 07:43:28;;;;;;;;;;;;;;;20.66;41.31;101440.31;4112317;28;19926;-65
2023/06/06 07:45:29;;;;;;;;;;;;;;;20.65;41.51;101438.59;4111982;28;19927;-65
2023/06/06 07:47:31;;;;;;;;;;;;;;;20.64;41.52;101441.38;4114582;28;19933;-65
2023/06/06 07:49:32;;;;;;;;;;;;;;;20.63;41.48;101443.16;4114997;28;19926;-65
2023/06/06 07:51:34;;;;;;;;;;;;;;;20.61;41.73;101439.75;4114233;28;19930;-65
2023/06/06 07:53:35;;;;;;;;;;;;;;;20.63;41.65;101442.31;4115009;28;19980;-65
2023/06/06 07:55:37;;;;;;;;;;;;;;;20.63;41.69;101450.34;4115073;28;19926;-65
2023/06/06 07:57:39;;;;;;;;;;;;;;;20.62;41.70;101444.16;4114103;28;19926;-65
2023/06/06 07:59:42;;;;;;;;;;;;;;;20.65;41.48;101446.59;4114730;28;19926;-65
2023/06/06 08:01:44;;;;;;;;;;;;;;;20.68;41.62;101437.53;4113903;28;19930;-65
2023/06/06 08:03:50;;;;;;;;;;;;;;;20.70;41.52;101444.47;4114846;28;20368;-65
2023/06/06 08:05:52;;;;;;;;;;;;;;;20.70;41.36;101436.44;4115191;28;20388;-65
2023/06/06 08:07:54;;;;;;;;;;;;;;;20.72;41.54;101434.56;4114821;28;19934;-66
2023/06/06 08:09:56;;;;;;;;;;;;;;;20.72;41.47;101431.91;4115045;28;19977;-65
2023/06/06 08:11:58;;;;;;;;;;;;;;;20.74;41.40;101432.66;4113889;28;19947;-65
2023/06/06 08:14:00;;;;;;;;;;;;;;;20.76;41.46;101431.72;4114545;28;19934;-66
2023/06/06 08:16:01;;;;;;;;;;;;;;;20.77;41.63;101428.06;4115015;28;19940;-65
2023/06/06 08:18:03;;;;;;;;;;;;;;;20.79;40.79;101436.84;4114708;28;19926;-65
2023/06/06 08:20:08;;;;;;;;;;;;;;;20.79;41.11;101432.38;4114784;28;19965;-65
2023/06/06 08:22:10;;;;;;;;;;;;;;;20.80;41.53;101436.72;4113572;28;19932;-65
2023/06/06 08:24:11;;;;;;;;;;;;;;;20.80;40.88;101427.84;4114826;28;19926;-66
2023/06/06 08:26:13;;;;;;;;;;;;;;;20.81;41.49;101435.78;4114647;28;19976;-66
2023/06/06 08:28:15;;;;;;;;;;;;;;;20.83;40.57;101436.53;4145686;28;19936;-66
2023/06/06 08:30:16;;;;;;;;;;;;;;;20.84;40.61;101438.25;4114223;28;19927;-66
2023/06/06 08:32:18;;;;;;;;;;;;;;;20.84;40.62;101438.25;4113572;28;19961;-65
2023/06/06 08:34:21;;;;;;;;;;;;;;;20.85;40.56;101439.97;4122601;28;20391;-65
2023/06/06 08:36:22;;;;;;;;;;;;;;;20.86;40.52;101436.34;4130509;28;19940;-66
2023/06/06 08:38:23;;;;;;;;;;;;;;;20.88;41.17;101431.72;4124547;28;19931;-66
2023/06/06 08:40:25;;;;;;;;;;;;;;;20.89;41.37;101440.63;4114655;28;19957;-65
2023/06/06 08:42:29;;;;;;;;;;;;;;;20.87;41.36;101430.00;4112460;28;20360;-66
2023/06/06 08:44:31;;;;;;;;;;;;;;;20.87;40.61;101437.19;4114201;28;19984;-65
2023/06/06 08:46:33;;;;;;;;;;;;;;;20.86;41.66;101428.31;4114572;28;19969;-65
2023/06/06 08:48:38;;;;;;;;;;;;;;;20.87;40.63;101440.69;4114468;28;19980;-65
2023/06/06 08:50:41;;;;;;;;;;;;;;;20.88;40.63;101436.22;4114485;28;19961;-66
2023/06/06 08:52:42;;;;;;;;;;;;;;;20.88;41.32;101441.56;4113384;28;19971;-65
2023/06/06 08:54:45;;;;;;;;;;;;;;;20.86;40.80;101436.34;4114361;28;19965;-65
2023/06/06 08:56:47;;;;;;;;;;;;;;;20.87;41.02;101437.19;4114417;28;19979;-64
2023/06/06 08:58:50;;;;;;;;;;;;;;;20.87;40.72;101435.34;4113737;28;19964;-65
2023/06/06 09:00:51;;;;;;;;;;;;;;;20.89;41.18;101440.63;4114310;28;19933;-65
2023/06/06 09:02:54;;;;;;;;;;;;;;;20.77;40.88;101425.38;4113267;28;19933;-65
2023/06/06 09:04:56;;;;;;;;;;;;;;;20.85;40.51;101431.94;4114215;28;19930;-64
2023/06/06 09:07:00;;;;;;;;;;;;;;;20.87;41.26;101442.53;4114566;28;19926;-65
2023/06/06 09:09:02;;;;;;;;;;;;;;;20.87;40.49;101447.88;4114308;28;19949;-64
2023/06/06 09:11:03;;;;;;;;;;;;;;;20.86;41.86;101449.72;4114116;28;20399;-64
2023/06/06 09:13:07;;;;;;;;;;;;;;;20.87;41.97;101446.03;4112716;28;20029;-64
2023/06/06 09:15:09;;;;;;;;;;;;;;;20.85;40.58;101445.31;4114136;28;20014;-64
2023/06/06 09:17:17;;;;;;;;;;;;;;;20.87;41.57;101440.69;4114022;28;20324;-64
2023/06/06 09:19:25;;;;;;;;;;;;;;;20.85;41.06;101442.63;4114076;28;19961;-64
2023/06/06 09:21:33;;;;;;;;;;;;;;;20.85;41.80;101439.09;4113050;28;19930;-65
2023/06/06 09:23:34;;;;;;;;;;;;;;;20.86;41.83;101439.00;4113926;28;19933;-65
2023/06/06 09:25:42;;;;;;;;;;;;;;;20.88;41.78;101437.06;4114237;28;19930;-65
2023/06/06 09:27:44;;;;;;;;;;;;;;;20.89;40.94;101436.09;4144658;28;20397;-65
2023/06/06 09:29:46;;;;;;;;;;;;;;;20.90;40.55;101434.31;4113655;28;19934;-64
2023/06/06 09:31:48;;;;;;;;;;;;;;;20.91;41.76;101430.66;4112834;28;20045;-64
2023/06/06 09:33:54;;;;;;;;;;;;;;;20.90;41.06;101436.97;4118162;28;20028;-64
2023/06/06 09:36:03;;;;;;;;;;;;;;;20.90;41.23;101434.31;4130028;28;20314;-64
2023/06/06 09:38:07;;;;;;;;;;;;;;;20.90;41.30;101429.81;4126552;28;19926;-64
2023/06/06 09:40:16;;;;;;;;;;;;;;;20.90;41.24;101431.63;4113762;28;20383;-64
2023/06/06 09:42:18;;;;;;;;;;;;;;;20.92;41.03;101427.03;4112225;28;19934;-65
2023/06/06 09:44:20;;;;;;;;;;;;;;;20.92;40.90;101427.03;4113521;28;19930;-63
2023/06/06 09:46:23;;;;;;;;;;;;;;;20.94;41.22;101410.91;4113644;28;19926;-63
2023/06/06 09:48:27;;;;;;;;;;;;;;;20.94;41.30;101418.91;4112655;28;19949;-63
2023/06/06 09:50:29;;;;;;;;;;;;;;;20.95;41.33;101425.94;4113659;28;19933;-66
2023/06/06 09:52:30;;;;;;;;;;;;;;;20.95;40.73;101421.47;4112347;28;19975;-64
2023/06/06 09:54:32;;;;;;;;;;;;;;;20.96;41.36;101420.53;4113694;28;20280;-66
2023/06/06 09:56:38;;;;;;;;;;;;;;;20.95;41.13;101424.16;4113246;28;19962;-67
2023/06/06 09:58:41;;;;;;;;;;;;;;;20.97;41.60;101408.00;4113907;28;19978;-67
2023/06/06 10:00:46;;;;;;;;;;;;;;;20.97;41.32;101421.38;4113490;28;20290;-64
2023/06/06 10:02:48;;;;;;;;;;;;;;;20.98;41.13;101410.56;4112591;28;20033;-67
2023/06/06 10:04:51;;;;;;;;;;;;;;;20.98;41.47;101412.38;4113533;28;19933;-67
2023/06/06 10:06:54;;;;;;;;;;;;;;;20.99;41.31;101414.94;4113155;28;19926;-67
2023/06/06 10:08:57;;;;;;;;;;;;;;;21.00;41.22;101407.78;4112934;28;19973;-66
2023/06/06 10:10:58;;;;;;;;;;;;;;;20.99;41.44;101404.25;4112127;28;19972;-66
2023/06/06 10:13:00;;;;;;;;;;;;;;;20.99;41.73;101400.72;4112335;28;19930;-64
2023/06/06 10:15:03;;;;;;;;;;;;;;;20.98;40.76;101396.34;4113223;28;20017;-66
2023/06/06 10:17:06;;;;;;;;;;;;;;;21.00;41.70;101405.13;4113311;28;20034;-67
2023/06/06 10:19:08;;;;;;;;;;;;;;;21.02;41.61;101405.84;4113547;28;20021;-66
2023/06/06 10:21:11;;;;;;;;;;;;;;;21.02;41.48;101406.72;4113159;28;20147;-67
2023/06/06 10:23:13;;;;;;;;;;;;;;;21.02;41.74;101398.69;4112147;28;20005;-66
2023/06/06 10:25:16;;;;;;;;;;;;;;;21.02;41.61;101388.00;4112969;28;20045;-66
2023/06/06 10:27:20;;;;;;;;;;;;;;;21.03;41.32;101386.16;4113238;28;20300;-67
2023/06/06 10:29:22;;;;;;;;;;;;;;;21.04;41.37;101398.59;4113023;28;19926;-64